createdAt,value
2018-04-26T00:01:41.131Z,41.40
2018-04-26T00:04:08.775Z,40.79
2018-04-26T00:06:36.380Z,40.90
2018-04-26T00:09:04.122Z,40.98
2018-04-26T00:11:31.722Z,41.06
2018-04-26T00:13:59.434Z,41.34
2018-04-26T00:16:27.071Z,40.40
2018-04-26T00:18:54.684Z,40.63
2018-04-26T00:21:22.333Z,40.66
2018-04-26T00:23:49.939Z,40.64
2018-04-26T00:26:17.596Z,40.78
2018-04-26T00:28:45.202Z,40.75
2018-04-26T00:31:12.847Z,40.85
2018-04-26T00:33:40.455Z,41.12
2018-04-26T00:36:08.104Z,41.30
2018-04-26T00:38:35.724Z,41.84
2018-04-26T00:41:04.239Z,42.19
2018-04-26T00:43:32.010Z,42.08
2018-04-26T00:45:59.666Z,42.61
2018-04-26T00:48:27.290Z,43.06
2018-04-26T00:50:54.935Z,43.00
2018-04-26T00:53:22.538Z,43.20
2018-04-26T00:55:50.191Z,43.68
2018-04-26T00:58:17.879Z,43.46
2018-04-26T01:00:45.555Z,43.74
2018-04-26T01:03:13.161Z,43.92
2018-04-26T01:05:40.807Z,44.03
2018-04-26T01:08:08.430Z,44.34
2018-04-26T01:10:36.103Z,44.07
2018-04-26T01:13:03.730Z,44.43
2018-04-26T01:15:31.384Z,44.19
2018-04-26T01:17:58.985Z,44.51
2018-04-26T01:20:26.634Z,45.10
2018-04-26T01:22:54.238Z,44.89
2018-04-26T01:25:21.882Z,45.06
2018-04-26T01:27:49.491Z,45.29
2018-04-26T01:30:17.158Z,45.00
2018-04-26T01:32:44.789Z,45.65
2018-04-26T01:35:12.430Z,45.08
2018-04-26T01:37:48.076Z,45.94
2018-04-26T01:40:15.723Z,45.57
2018-04-26T01:42:43.324Z,45.94
2018-04-26T01:45:10.979Z,46.77
2018-04-26T01:47:38.586Z,47.12
2018-04-26T01:50:06.239Z,47.39
2018-04-26T01:52:33.855Z,47.39
2018-04-26T01:55:01.627Z,47.13
2018-04-26T01:57:29.234Z,47.52
2018-04-26T01:59:56.887Z,47.59
2018-04-26T02:02:24.490Z,47.98
2018-04-26T02:04:52.136Z,48.23
2018-04-26T02:07:19.742Z,48.26
2018-04-26T02:09:47.593Z,48.45
2018-04-26T02:12:15.207Z,48.68
2018-04-26T02:14:42.846Z,48.88
2018-04-26T02:17:10.467Z,49.04
2018-04-26T02:19:38.147Z,49.35
2018-04-26T02:22:05.752Z,49.38
2018-04-26T02:24:33.404Z,49.82
2018-04-26T02:27:01.012Z,50.16
2018-04-26T02:29:28.618Z,50.64
2018-04-26T02:31:56.267Z,50.86
2018-04-26T02:34:23.878Z,51.33
2018-04-26T02:36:51.533Z,51.34
2018-04-26T02:39:19.144Z,51.41
2018-04-26T02:41:46.798Z,51.62
2018-04-26T02:44:14.426Z,51.98
2018-04-26T02:46:42.079Z,51.56
2018-04-26T02:49:09.695Z,51.78
2018-04-26T02:51:37.358Z,52.04
2018-04-26T02:54:04.987Z,52.18
2018-04-26T02:56:32.632Z,52.31
2018-04-26T02:59:00.237Z,52.43
2018-04-26T03:01:27.889Z,52.53
2018-04-26T03:03:55.513Z,52.74
2018-04-26T03:06:23.172Z,52.72
2018-04-26T03:08:50.786Z,53.26
2018-04-26T03:11:18.436Z,53.26
2018-04-26T03:13:46.047Z,53.39
2018-04-26T03:16:13.694Z,53.51
2018-04-26T03:18:41.300Z,53.80
2018-04-26T03:21:08.959Z,54.02
2018-04-26T03:23:36.612Z,53.54
2018-04-26T03:26:04.294Z,53.55
2018-04-26T03:28:31.904Z,54.08
2018-04-26T03:30:59.576Z,53.95
2018-04-26T03:33:27.183Z,53.83
2018-04-26T03:35:54.831Z,54.12
2018-04-26T03:38:22.439Z,54.54
2018-04-26T03:40:50.085Z,56.12
2018-04-26T03:43:17.695Z,56.15
2018-04-26T03:45:45.335Z,56.68
2018-04-26T03:48:12.938Z,56.61
2018-04-26T03:50:40.578Z,56.89
2018-04-26T03:53:08.183Z,57.83
2018-04-26T03:55:35.827Z,58.15
2018-04-26T03:58:03.444Z,58.09
2018-04-26T04:00:42.839Z,58.27
2018-04-26T04:03:22.135Z,58.27
2018-04-26T04:05:54.324Z,58.58
2018-04-26T04:08:21.934Z,58.43
2018-04-26T04:10:49.578Z,58.56
2018-04-26T04:13:17.178Z,58.46
2018-04-26T04:15:44.838Z,58.75
2018-04-26T04:18:12.498Z,58.73
2018-04-26T04:20:40.143Z,59.02
2018-04-26T04:23:08.264Z,59.74
2018-04-26T04:25:35.934Z,60.69
2018-04-26T04:28:03.635Z,60.26
2018-04-26T04:30:31.230Z,60.09
2018-04-26T04:32:58.831Z,60.31
2018-04-26T04:35:26.476Z,59.88
2018-04-26T04:37:54.086Z,59.45
2018-04-26T04:40:21.736Z,59.29
2018-04-26T04:42:49.342Z,59.29
2018-04-26T04:45:17.002Z,59.21
2018-04-26T04:47:44.660Z,59.08
2018-04-26T04:50:12.297Z,58.14
2018-04-26T04:52:39.946Z,57.46
2018-04-26T04:55:07.587Z,56.75
2018-04-26T04:57:35.237Z,56.20
2018-04-26T05:00:02.848Z,55.53
2018-04-26T05:02:30.490Z,55.03
2018-04-26T05:04:58.097Z,54.28
2018-04-26T05:07:25.828Z,54.18
2018-04-26T05:09:53.403Z,53.83
2018-04-26T05:12:21.050Z,53.54
2018-04-26T05:14:48.653Z,53.16
2018-04-26T05:17:16.338Z,52.69
2018-04-26T05:19:43.976Z,51.94
2018-04-26T05:22:11.639Z,51.24
2018-04-26T05:24:39.342Z,50.38
2018-04-26T05:27:06.980Z,49.88
2018-04-26T05:29:34.584Z,49.53
2018-04-26T05:32:02.226Z,49.68
2018-04-26T05:34:29.840Z,48.97
2018-04-26T05:36:57.482Z,48.61
2018-04-26T05:39:25.101Z,48.52
2018-04-26T05:41:52.755Z,48.45
2018-04-26T05:44:20.386Z,47.74
2018-04-26T05:46:48.043Z,46.56
2018-04-26T05:49:15.651Z,46.19
2018-04-26T05:51:43.310Z,46.98
2018-04-26T05:54:10.918Z,46.17
2018-04-26T05:56:38.566Z,46.00
2018-04-26T05:59:06.179Z,46.28
2018-04-26T06:01:33.935Z,46.00
2018-04-26T06:04:01.551Z,45.92
2018-04-26T06:06:29.198Z,46.65
2018-04-26T06:08:56.860Z,45.49
2018-04-26T06:11:24.510Z,44.74
2018-04-26T06:13:52.188Z,43.97
2018-04-26T06:16:19.834Z,43.62
2018-04-26T06:18:47.442Z,43.94
2018-04-26T06:21:15.091Z,43.55
2018-04-26T06:23:42.695Z,43.33
2018-04-26T06:26:10.351Z,43.16
2018-04-26T06:28:37.964Z,42.16
2018-04-26T06:31:05.649Z,42.27
2018-04-26T06:33:33.318Z,41.86
2018-04-26T06:36:01.025Z,40.72
2018-04-26T06:38:28.674Z,40.96
2018-04-26T06:40:56.325Z,41.21
2018-04-26T06:43:23.927Z,40.51
2018-04-26T06:45:51.575Z,39.57
2018-04-26T06:48:19.196Z,39.33
2018-04-26T06:50:46.802Z,41.08
2018-04-26T06:53:14.450Z,41.20
2018-04-26T06:55:42.090Z,41.23
2018-04-26T06:58:09.741Z,41.76
2018-04-26T07:00:37.387Z,40.43
2018-04-26T07:03:05.094Z,41.01
2018-04-26T07:05:32.742Z,40.11
2018-04-26T07:08:00.392Z,38.33
2018-04-26T07:10:28.008Z,38.63
2018-04-26T07:12:55.670Z,40.37
2018-04-26T07:15:23.283Z,41.77
2018-04-26T07:17:50.931Z,40.82
2018-04-26T07:20:18.535Z,37.65
2018-04-26T07:22:46.183Z,37.43
2018-04-26T07:25:13.795Z,36.44
2018-04-26T07:27:41.447Z,35.23
2018-04-26T07:30:09.055Z,36.29
2018-04-26T07:32:36.704Z,35.22
2018-04-26T07:35:04.328Z,36.67
2018-04-26T07:37:31.975Z,37.93
2018-04-26T07:39:59.582Z,37.79
2018-04-26T07:42:27.266Z,38.60
2018-04-26T07:44:54.875Z,39.18
2018-04-26T07:47:22.529Z,36.03
2018-04-26T07:49:50.147Z,37.08
2018-04-26T07:52:17.796Z,37.41
2018-04-26T07:54:45.533Z,35.08
2018-04-26T07:57:13.191Z,34.76
2018-04-26T07:59:40.792Z,36.02
2018-04-26T08:02:08.395Z,36.38
2018-04-26T08:04:36.039Z,35.90
2018-04-26T08:07:03.734Z,36.30
2018-04-26T08:09:31.384Z,37.75
2018-04-26T08:11:58.996Z,37.32
2018-04-26T08:14:26.642Z,35.42
2018-04-26T08:16:54.246Z,35.32
2018-04-26T08:19:21.891Z,34.08
2018-04-26T08:21:49.494Z,29.53
2018-04-26T08:24:18.002Z,28.95
2018-04-26T08:26:45.611Z,30.39
2018-04-26T08:29:13.259Z,31.77
2018-04-26T08:31:40.866Z,33.35
2018-04-26T08:34:08.511Z,35.18
2018-04-26T08:36:36.114Z,36.12
2018-04-26T08:39:03.859Z,34.95
2018-04-26T08:41:31.463Z,32.21
2018-04-26T08:43:59.112Z,31.41
2018-04-26T08:46:26.778Z,29.49
2018-04-26T08:48:54.432Z,28.86
2018-04-26T08:51:22.040Z,30.86
2018-04-26T08:53:49.871Z,34.76
2018-04-26T08:56:17.482Z,32.74
2018-04-26T08:58:45.106Z,32.61
2018-04-26T09:01:12.755Z,33.00
2018-04-26T09:03:40.355Z,33.57
2018-04-26T09:06:08.007Z,34.13
2018-04-26T09:08:35.625Z,34.87
2018-04-26T09:11:03.275Z,34.02
2018-04-26T09:13:30.909Z,31.96
2018-04-26T09:15:58.667Z,28.85
2018-04-26T09:18:26.302Z,27.74
2018-04-26T09:20:53.952Z,26.19
2018-04-26T09:23:21.549Z,27.62
2018-04-26T09:25:49.200Z,28.80
2018-04-26T09:28:16.798Z,29.93
2018-04-26T09:30:44.446Z,30.35
2018-04-26T09:33:12.128Z,29.12
2018-04-26T09:35:39.801Z,29.71
2018-04-26T09:38:07.406Z,30.20
2018-04-26T09:40:35.050Z,31.15
2018-04-26T09:43:02.655Z,31.80
2018-04-26T09:45:30.302Z,31.70
2018-04-26T09:47:57.911Z,32.60
2018-04-26T09:50:25.554Z,32.67
2018-04-26T09:52:53.163Z,33.75
2018-04-26T09:55:20.771Z,34.74
2018-04-26T09:57:48.416Z,33.91
2018-04-26T10:00:21.686Z,30.28
2018-04-26T10:02:49.366Z,28.74
2018-04-26T10:05:17.015Z,27.85
2018-04-26T10:07:44.667Z,28.78
2018-04-26T10:10:12.276Z,29.74
2018-04-26T10:12:39.927Z,30.02
2018-04-26T10:15:07.556Z,30.23
2018-04-26T10:17:35.214Z,30.78
2018-04-26T10:20:02.815Z,29.88
2018-04-26T10:22:30.463Z,29.33
2018-04-26T10:24:58.071Z,27.07
2018-04-26T10:27:25.727Z,27.20
2018-04-26T10:29:54.244Z,27.39
2018-04-26T10:32:21.890Z,27.73
2018-04-26T10:34:49.495Z,30.27
2018-04-26T10:37:17.143Z,31.18
2018-04-26T10:39:44.746Z,30.75
2018-04-26T10:42:12.423Z,29.97
2018-04-26T10:44:40.090Z,30.17
2018-04-26T10:47:07.743Z,29.83
2018-04-26T10:49:35.347Z,28.25
2018-04-26T10:52:02.992Z,25.79
2018-04-26T10:54:30.594Z,26.06
2018-04-26T10:56:58.250Z,26.82
2018-04-26T10:59:25.871Z,28.48
2018-04-26T11:01:53.517Z,28.69
2018-04-26T11:04:21.159Z,28.26
2018-04-26T11:06:48.762Z,28.38
2018-04-26T11:09:16.518Z,29.61
2018-04-26T11:11:44.048Z,29.23
2018-04-26T11:14:11.690Z,29.51
2018-04-26T11:16:39.299Z,29.75
2018-04-26T11:19:06.946Z,30.08
2018-04-26T11:21:34.554Z,30.29
2018-04-26T11:24:02.196Z,30.40
2018-04-26T11:26:29.798Z,29.89
2018-04-26T11:28:57.452Z,30.25
2018-04-26T11:31:25.058Z,30.29
2018-04-26T11:33:52.731Z,29.75
2018-04-26T11:36:20.347Z,29.72
2018-04-26T11:38:47.986Z,29.46
2018-04-26T11:41:15.595Z,28.81
2018-04-26T11:43:43.254Z,28.07
2018-04-26T11:46:10.861Z,27.23
2018-04-26T11:48:38.528Z,25.95
2018-04-26T11:51:06.139Z,25.57
2018-04-26T11:53:33.784Z,26.31
2018-04-26T11:56:01.416Z,27.22
2018-04-26T11:58:29.067Z,28.30
2018-04-26T12:00:56.700Z,28.70
2018-04-26T12:03:24.342Z,28.55
2018-04-26T12:05:51.947Z,28.09
2018-04-26T12:08:19.596Z,27.78
2018-04-26T12:10:47.242Z,27.68
2018-04-26T12:13:14.971Z,26.46
2018-04-26T12:15:42.539Z,27.17
2018-04-26T12:18:10.187Z,27.18
2018-04-26T12:20:37.790Z,26.66
2018-04-26T12:23:05.430Z,26.80
2018-04-26T12:25:33.036Z,26.68
2018-04-26T12:28:00.687Z,27.08
2018-04-26T12:30:28.292Z,26.82
2018-04-26T12:32:55.947Z,25.21
2018-04-26T12:35:23.748Z,26.59
2018-04-26T12:37:51.442Z,26.37
2018-04-26T12:40:19.042Z,26.27
2018-04-26T12:42:46.692Z,26.34
2018-04-26T12:45:14.302Z,25.35
2018-04-26T12:47:41.947Z,24.66
2018-04-26T12:50:09.563Z,24.65
2018-04-26T12:52:37.214Z,24.83
2018-04-26T12:55:04.818Z,24.52
2018-04-26T12:57:32.459Z,25.20
2018-04-26T13:00:00.059Z,25.12
2018-04-26T13:02:27.710Z,25.72
2018-04-26T13:04:55.353Z,24.03
2018-04-26T13:07:23.006Z,24.76
2018-04-26T13:09:50.651Z,24.76
2018-04-26T13:12:18.258Z,24.51
2018-04-26T13:14:45.905Z,24.93
2018-04-26T13:17:13.516Z,24.77
2018-04-26T13:19:41.190Z,24.82
2018-04-26T13:22:08.834Z,24.96
2018-04-26T13:24:36.480Z,25.51
2018-04-26T13:27:04.185Z,25.82
2018-04-26T13:29:31.789Z,25.93
2018-04-26T13:31:59.407Z,25.40
2018-04-26T13:34:27.061Z,25.12
2018-04-26T13:36:54.675Z,25.03
2018-04-26T13:39:22.315Z,24.76
2018-04-26T13:41:49.932Z,23.08
2018-04-26T13:44:17.606Z,24.02
2018-04-26T13:46:45.210Z,23.84
2018-04-26T13:49:12.861Z,23.86
2018-04-26T13:51:40.474Z,24.39
2018-04-26T13:54:08.122Z,24.15
2018-04-26T13:56:35.726Z,23.49
2018-04-26T13:59:03.379Z,22.93
2018-04-26T14:01:30.982Z,22.32
2018-04-26T14:03:58.622Z,22.62
2018-04-26T14:06:26.331Z,23.42
2018-04-26T14:08:54.095Z,22.84
2018-04-26T14:11:21.860Z,23.16
2018-04-26T14:13:49.584Z,22.98
2018-04-26T14:16:17.391Z,23.82
2018-04-26T14:18:45.252Z,23.19
2018-04-26T14:21:12.992Z,22.15
2018-04-26T14:23:40.783Z,22.05
2018-04-26T14:26:08.548Z,22.31
2018-04-26T14:28:36.414Z,22.86
2018-04-26T14:31:04.076Z,22.90
2018-04-26T14:33:31.943Z,22.83
2018-04-26T14:35:59.704Z,21.40
2018-04-26T14:38:27.355Z,21.19
2018-04-26T14:40:54.966Z,21.61
2018-04-26T14:43:22.652Z,21.81
2018-04-26T14:45:50.264Z,22.32
2018-04-26T14:48:17.919Z,22.45
2018-04-26T14:50:45.527Z,22.88
2018-04-26T14:53:13.184Z,22.50
2018-04-26T14:55:40.841Z,22.97
2018-04-26T14:58:08.616Z,23.44
2018-04-26T15:00:36.432Z,23.28
2018-04-26T15:03:04.245Z,23.47
2018-04-26T15:05:32.064Z,23.04
2018-04-26T15:07:59.935Z,23.17
2018-04-26T15:10:27.695Z,23.11
2018-04-26T15:12:55.338Z,22.93
2018-04-26T15:15:22.951Z,22.40
2018-04-26T15:17:50.559Z,22.24
2018-04-26T15:20:18.202Z,22.49
2018-04-26T15:22:45.822Z,22.13
2018-04-26T15:25:13.471Z,22.01
2018-04-26T15:27:41.071Z,22.68
2018-04-26T15:30:08.714Z,23.03
2018-04-26T15:32:36.314Z,22.37
2018-04-26T15:35:03.972Z,22.28
2018-04-26T15:37:31.583Z,22.64
2018-04-26T15:39:59.234Z,23.03
2018-04-26T15:42:26.835Z,22.73
2018-04-26T15:44:54.485Z,22.06
2018-04-26T15:47:22.090Z,22.04
2018-04-26T15:49:49.730Z,21.62
2018-04-26T15:55:31.447Z,22.13
2018-04-26T16:01:28.411Z,22.00
2018-04-26T16:04:07.818Z,22.54
2018-04-26T16:06:45.387Z,22.75
2018-04-26T16:09:24.958Z,22.65
2018-04-26T16:12:04.443Z,22.51
2018-04-26T16:14:44.100Z,22.68
2018-04-26T16:17:29.159Z,22.29
2018-04-26T16:20:14.227Z,22.90
2018-04-26T16:22:59.225Z,23.91
2018-04-26T16:25:38.811Z,23.73
2018-04-26T16:28:23.768Z,24.21
2018-04-26T16:31:08.845Z,24.63
2018-04-26T16:33:48.251Z,24.87
2018-04-26T16:36:27.692Z,24.96
2018-04-26T16:41:58.203Z,25.77
2018-04-26T16:44:26.797Z,25.74
2018-04-26T16:46:54.434Z,25.89
2018-04-26T16:49:22.043Z,26.04
2018-04-26T16:51:49.688Z,25.70
2018-04-26T16:54:17.291Z,27.41
2018-04-26T16:56:44.935Z,25.95
2018-04-26T16:59:12.546Z,26.20
2018-04-26T17:01:40.203Z,26.21
2018-04-26T17:04:07.822Z,26.01
2018-04-26T17:06:35.503Z,25.88
2018-04-26T17:09:03.191Z,26.87
2018-04-26T17:11:30.873Z,27.18
2018-04-26T17:13:58.503Z,27.24
2018-04-26T17:16:26.155Z,27.46
2018-04-26T17:18:53.769Z,27.71
2018-04-26T17:21:21.419Z,27.92
2018-04-26T17:23:49.070Z,28.23
2018-04-26T17:26:16.719Z,28.42
2018-04-26T17:28:44.327Z,28.29
2018-04-26T17:31:11.975Z,28.64
2018-04-26T17:33:39.583Z,28.76
2018-04-26T17:36:07.234Z,28.99
2018-04-26T17:38:34.850Z,28.72
2018-04-26T17:41:02.504Z,29.01
2018-04-26T17:43:30.107Z,28.23
2018-04-26T17:45:57.767Z,28.45
2018-04-26T17:48:25.367Z,28.37
2018-04-26T17:50:53.019Z,29.10
2018-04-26T17:53:20.708Z,29.12
2018-04-26T17:55:48.263Z,29.30
2018-04-26T17:58:15.957Z,29.43
2018-04-26T18:00:43.568Z,29.72
2018-04-26T18:03:11.218Z,29.64
2018-04-26T18:05:38.825Z,29.74
2018-04-26T18:08:06.471Z,29.88
2018-04-26T18:10:34.073Z,30.35
2018-04-26T18:13:01.714Z,30.48
2018-04-26T18:15:29.318Z,30.72
2018-04-26T18:17:56.963Z,30.94
2018-04-26T18:20:24.620Z,31.41
2018-04-26T18:22:52.251Z,31.58
2018-04-26T18:25:19.928Z,32.12
2018-04-26T18:27:47.572Z,32.19
2018-04-26T18:30:15.185Z,31.90
2018-04-26T18:32:42.835Z,32.26
2018-04-26T18:35:10.438Z,32.69
2018-04-26T18:37:38.084Z,33.08
2018-04-26T18:40:05.708Z,32.95
2018-04-26T18:42:33.364Z,33.36
2018-04-26T18:45:01.155Z,33.09
2018-04-26T18:47:28.806Z,33.62
2018-04-26T18:49:56.413Z,33.71
2018-04-26T18:52:24.063Z,33.85
2018-04-26T18:54:51.670Z,33.59
2018-04-26T18:57:19.320Z,34.03
2018-04-26T18:59:46.926Z,34.62
2018-04-26T19:02:14.651Z,34.67
2018-04-26T19:04:42.231Z,34.77
2018-04-26T19:07:09.878Z,35.27
2018-04-26T19:09:37.504Z,35.77
2018-04-26T19:12:05.158Z,35.53
2018-04-26T19:14:32.768Z,35.90
2018-04-26T19:17:00.413Z,36.43
2018-04-26T19:19:28.027Z,36.07
2018-04-26T19:21:55.672Z,36.72
2018-04-26T19:24:23.278Z,36.53
2018-04-26T19:26:50.923Z,36.75
2018-04-26T19:29:18.531Z,36.42
2018-04-26T19:31:46.283Z,36.74
2018-04-26T19:34:13.906Z,37.08
2018-04-26T19:36:41.644Z,37.09
2018-04-26T19:39:09.248Z,36.61
2018-04-26T19:41:36.890Z,36.76
2018-04-26T19:44:04.490Z,36.39
2018-04-26T19:46:32.140Z,37.04
2018-04-26T19:48:59.742Z,37.01
2018-04-26T19:51:27.391Z,37.23
2018-04-26T19:53:54.995Z,37.43
2018-04-26T19:56:22.646Z,37.14
2018-04-26T19:58:50.258Z,37.63
2018-04-26T20:01:17.871Z,38.15
2018-04-26T20:03:45.515Z,38.54
2018-04-26T20:06:13.200Z,38.48
2018-04-26T20:08:40.909Z,38.24
2018-04-26T20:11:08.928Z,38.73
2018-04-26T20:13:36.574Z,39.39
2018-04-26T20:16:04.176Z,39.53
2018-04-26T20:18:31.881Z,39.48
2018-04-26T20:20:59.472Z,40.00
2018-04-26T20:23:27.127Z,40.33
2018-04-26T20:25:55.179Z,40.38
2018-04-26T20:28:22.848Z,40.48
2018-04-26T20:30:50.474Z,40.88
2018-04-26T20:33:18.131Z,41.45
2018-04-26T20:35:45.763Z,41.37
2018-04-26T20:38:13.422Z,41.63
2018-04-26T20:40:41.036Z,42.27
2018-04-26T20:43:08.691Z,42.54
2018-04-26T20:45:36.318Z,42.64
2018-04-26T20:48:03.975Z,42.85
2018-04-26T20:50:31.758Z,43.43
2018-04-26T20:52:59.938Z,42.52
2018-04-26T20:55:27.599Z,42.45
2018-04-26T20:57:55.243Z,42.67
2018-04-26T21:00:22.874Z,43.01
2018-04-26T21:02:50.515Z,42.64
2018-04-26T21:05:18.132Z,41.90
2018-04-26T21:07:45.786Z,41.34
2018-04-26T21:10:13.395Z,42.12
2018-04-26T21:12:41.060Z,41.36
2018-04-26T21:15:08.669Z,42.25
2018-04-26T21:17:36.313Z,42.58
2018-04-26T21:20:03.928Z,42.37
2018-04-26T21:22:31.615Z,42.44
2018-04-26T21:24:59.228Z,43.00
2018-04-26T21:27:27.083Z,42.28
2018-04-26T21:29:54.706Z,42.66
2018-04-26T21:32:22.351Z,42.68
2018-04-26T21:34:49.964Z,44.25
2018-04-26T21:37:17.612Z,44.64
2018-04-26T21:39:45.766Z,44.91
2018-04-26T21:42:13.458Z,45.29
2018-04-26T21:44:41.104Z,45.30
2018-04-26T21:47:08.746Z,45.32
2018-04-26T21:49:35.826Z,45.24
2018-04-26T21:52:08.870Z,45.62
2018-04-26T21:54:42.299Z,46.02
2018-04-26T21:57:15.577Z,45.69
2018-04-26T21:59:48.680Z,45.67
2018-04-26T22:02:21.969Z,45.63
2018-04-26T22:04:54.955Z,45.98
2018-04-26T22:07:22.631Z,46.46
2018-04-26T22:09:50.318Z,46.70
2018-04-26T22:12:17.979Z,47.12
2018-04-26T22:14:45.627Z,46.98
2018-04-26T22:17:13.246Z,47.50
2018-04-26T22:19:40.913Z,47.45
2018-04-26T22:22:08.531Z,47.96
2018-04-26T22:24:36.195Z,48.29
2018-04-26T22:27:03.815Z,48.13
2018-04-26T22:29:31.488Z,48.48
2018-04-26T22:31:59.099Z,48.71
2018-04-26T22:34:26.744Z,48.55
2018-04-26T22:36:54.355Z,48.74
2018-04-26T22:39:22.002Z,48.14
2018-04-26T22:41:49.607Z,48.89
2018-04-26T22:44:17.255Z,48.42
2018-04-26T22:46:44.870Z,48.94
2018-04-26T22:49:12.518Z,48.88
2018-04-26T22:51:40.136Z,48.79
2018-04-26T22:54:07.788Z,49.30
2018-04-26T22:56:35.400Z,49.06
2018-04-26T22:59:03.047Z,48.75
2018-04-26T23:01:30.668Z,49.46
2018-04-26T23:03:58.327Z,49.49
2018-04-26T23:06:25.930Z,49.88
2018-04-26T23:08:53.590Z,49.71
2018-04-26T23:11:21.213Z,50.85
2018-04-26T23:13:48.870Z,51.18
2018-04-26T23:16:16.484Z,51.17
2018-04-26T23:18:44.139Z,50.85
2018-04-26T23:21:11.744Z,51.22
2018-04-26T23:23:39.387Z,52.01
2018-04-26T23:26:07.018Z,51.48
2018-04-26T23:28:34.672Z,51.81
2018-04-26T23:31:02.292Z,52.27
2018-04-26T23:33:29.941Z,52.58
2018-04-26T23:35:57.559Z,52.71
2018-04-26T23:38:25.216Z,53.42
2018-04-26T23:40:52.824Z,52.59
2018-04-26T23:43:20.471Z,52.86
2018-04-26T23:45:48.083Z,53.02
2018-04-26T23:48:15.731Z,53.80
2018-04-26T23:50:43.378Z,53.64
2018-04-26T23:53:11.039Z,53.40
2018-04-26T23:55:38.649Z,53.71
2018-04-26T23:58:06.298Z,53.36
